Time;durP1;ratioP1;P1;durP2;ratioP2;P2;SDS_P1;SDS_P2;PMS_P1;PMS_P2;Temp;Humidity;BMP_temperature;BMP_pressure;BME280_temperature;BME280_humidity;BME280_pressure;Samples;Min_cycle;Max_cycle;Signal;HPM_P1;HPM_P2
2022/08/17 00:00:16;;;;;;;1.20;1.10;;;14.40;1.40;;;15.77;100.00;94931.66;647651;212;31551;-68
2022/08/17 00:03:04;;;;;;;2.45;1.50;;;14.20;1.40;;;15.66;100.00;94930.55;644579;212;31596;-69
2022/08/17 00:05:47;;;;;;;2.75;1.70;;;14.00;1.40;;;15.61;100.00;94930.59;646663;216;31609;-69
2022/08/17 00:08:31;;;;;;;1.48;1.30;;;14.00;1.40;;;15.55;100.00;94920.86;646342;216;31606;-69
2022/08/17 00:11:16;;;;;;;2.58;1.42;;;13.90;1.40;;;15.54;100.00;94918.73;646733;216;32008;-70
2022/08/17 00:14:01;;;;;;;1.62;1.45;;;13.90;1.40;;;15.51;100.00;94917.08;646378;212;31553;-70
2022/08/17 00:16:47;;;;;;;2.20;2.00;;;13.90;1.40;;;15.56;100.00;94919.52;609442;226;32002;-71
2022/08/17 00:19:28;;;;;;;1.48;1.27;;;14.00;1.40;;;15.47;100.00;94920.05;645761;216;31611;-70
2022/08/17 00:22:10;;;;;;;11.50;1.30;;;13.90;1.40;;;15.38;100.00;94919.86;646754;216;31534;-69
2022/08/17 00:24:54;;;;;;;1.50;1.40;;;13.90;1.40;;;15.38;100.00;94920.72;645689;212;31476;-72
2022/08/17 00:27:35;;;;;;;2.40;1.50;;;13.90;1.40;;;15.33;100.00;94915.05;646836;216;31567;-72
2022/08/17 00:30:17;;;;;;;2.30;1.60;;;13.70;1.40;;;15.38;100.00;94910.59;646647;216;31665;-70
2022/08/17 00:32:59;;;;;;;1.60;1.50;;;13.70;1.40;;;15.30;100.00;94910.97;646244;216;31508;-70
2022/08/17 00:35:51;;;;;;;1.05;1.00;;;13.70;1.40;;;15.17;100.00;94905.55;645522;216;31575;-70
2022/08/17 00:38:33;;;;;;;4.68;1.62;;;13.60;1.40;;;15.08;100.00;94909.07;646601;212;32076;-72
2022/08/17 00:41:18;;;;;;;2.30;1.20;;;13.50;1.40;;;15.03;100.00;94908.23;646908;216;31600;-70
2022/08/17 00:43:59;;;;;;;1.35;0.88;;;13.50;1.40;;;14.98;100.00;94907.63;646848;216;32115;-71
2022/08/17 00:46:44;;;;;;;1.40;1.20;;;13.40;1.40;;;14.96;100.00;94902.70;647362;216;31528;-70
2022/08/17 00:49:26;;;;;;;1.30;1.20;;;13.40;1.40;;;14.99;100.00;94898.80;645688;212;32095;-70
2022/08/17 00:52:10;;;;;;;1.40;1.30;;;13.40;1.40;;;15.05;100.00;94896.45;646728;216;31560;-70
2022/08/17 00:54:51;;;;;;;1.70;1.60;;;13.40;1.40;;;15.03;100.00;94892.27;645218;216;31530;-69
2022/08/17 00:57:32;;;;;;;1.30;1.12;;;13.40;1.40;;;14.98;100.00;94890.84;642279;215;31595;-72
2022/08/17 01:00:18;;;;;;;0.90;0.73;;;13.40;1.40;;;15.01;100.00;94888.08;645886;212;32202;-69
2022/08/17 01:03:00;;;;;;;2.03;1.80;;;13.40;1.40;;;14.97;100.00;94889.69;646199;216;31813;-71
2022/08/17 01:05:41;;;;;;;2.70;1.40;;;13.50;1.40;;;14.97;100.00;94892.52;645774;212;31684;-71
2022/08/17 01:08:23;;;;;;;1.55;1.45;;;13.50;1.40;;;14.98;100.00;94888.51;646842;216;31522;-70
2022/08/17 01:11:05;;;;;;;1.23;1.12;;;13.40;1.40;;;14.84;100.00;94892.78;645738;216;31663;-72
2022/08/17 01:13:46;;;;;;;1.40;1.20;;;13.30;1.40;;;14.82;100.00;94891.87;646306;216;31625;-70
2022/08/17 01:16:28;;;;;;;1.27;1.12;;;13.30;1.40;;;14.87;100.00;94896.60;637279;216;31735;-71
2022/08/17 01:19:15;;;;;;;1.60;1.50;;;13.40;1.40;;;14.91;100.00;94892.48;646402;216;31566;-70
2022/08/17 01:21:58;;;;;;;1.48;1.37;;;13.40;1.40;;;14.87;100.00;94893.86;617069;222;31861;-70
2022/08/17 01:24:41;;;;;;;2.20;1.20;;;13.30;1.40;;;14.87;100.00;94894.97;646049;216;31617;-70
2022/08/17 01:27:23;;;;;;;1.83;1.62;;;13.40;1.40;;;14.90;100.00;94897.02;647036;216;31569;-70
2022/08/17 01:30:04;;;;;;;1.70;1.20;;;13.50;1.40;;;14.80;100.00;94889.73;646882;212;31532;-70
2022/08/17 01:32:49;;;;;;;1.60;1.20;;;13.30;1.40;;;14.80;100.00;94884.20;646268;216;31498;-70
2022/08/17 01:35:51;;;;;;;1.67;1.55;;;13.30;1.40;;;14.90;100.00;94881.91;645713;212;31545;-69
2022/08/17 01:38:34;;;;;;;1.83;1.42;;;13.30;1.40;;;14.87;100.00;94882.61;647009;212;31870;-70
2022/08/17 01:41:18;;;;;;;2.10;1.90;;;13.30;1.40;;;14.88;100.00;94879.08;646950;212;31532;-69
2022/08/17 01:44:01;;;;;;;2.05;1.12;;;13.40;1.40;;;14.98;100.00;94881.51;645678;212;31507;-70
2022/08/17 01:46:42;;;;;;;1.10;1.00;;;13.50;1.40;;;15.14;100.00;94882.48;645523;212;31566;-70
2022/08/17 01:49:24;;;;;;;2.33;1.30;;;13.60;1.40;;;14.68;100.00;94889.66;647003;212;32208;-69
2022/08/17 01:52:07;;;;;;;3.20;1.20;;;13.10;1.40;;;14.42;100.00;94893.91;645876;216;31546;-69
2022/08/17 01:54:48;;;;;;;2.40;1.20;;;12.90;1.40;;;14.33;100.00;94890.57;646652;216;31511;-70
2022/08/17 01:57:30;;;;;;;1.70;1.50;;;12.90;1.40;;;14.36;100.00;94888.30;645973;216;31509;-69
2022/08/17 02:00:13;;;;;;;1.33;1.20;;;13.00;1.40;;;14.38;100.00;94885.09;618805;223;32906;-69
2022/08/17 02:02:55;;;;;;;1.17;1.05;;;12.90;1.40;;;14.42;100.00;94889.25;646188;216;31543;-69
2022/08/17 02:05:37;;;;;;;1.62;1.42;;;12.90;1.40;;;14.47;100.00;94888.50;647324;216;31539;-69
2022/08/17 02:08:19;;;;;;;2.22;1.50;;;12.90;1.40;;;14.46;100.00;94886.33;622877;226;31962;-69
2022/08/17 02:11:02;;;;;;;1.50;1.40;;;13.00;1.40;;;14.46;100.00;94888.48;650108;216;31577;-73
2022/08/17 02:13:44;;;;;;;1.33;1.33;;;13.10;1.40;;;14.43;100.00;94887.01;646999;212;31547;-70
2022/08/17 02:19:00;;;;;;;2.05;1.27;;;13.10;1.40;;;14.51;100.00;94877.67;647606;216;31533;-69
2022/08/17 02:21:44;;;;;;;2.03;1.55;;;13.10;1.40;;;14.65;100.00;94880.19;647215;216;31594;-70
2022/08/17 02:24:26;;;;;;;1.90;1.80;;;13.40;1.40;;;14.76;100.00;94882.25;644795;212;32094;-70
2022/08/17 02:27:08;;;;;;;2.20;2.00;;;13.50;1.40;;;14.75;100.00;94871.44;653113;216;31559;-70
2022/08/17 02:29:49;;;;;;;1.77;1.12;;;13.40;1.40;;;14.62;100.00;94867.52;648000;212;31542;-69
2022/08/17 02:32:33;;;;;;;1.60;1.30;;;13.20;1.40;;;14.53;100.00;94864.80;645115;216;31510;-70
2022/08/17 02:35:51;;;;;;;1.45;1.10;;;12.90;1.40;;;14.49;100.00;94866.91;648603;212;31586;-69
2022/08/17 02:38:33;;;;;;;2.03;1.83;;;12.90;1.40;;;14.44;100.00;94860.98;647644;216;31722;-70
2022/08/17 02:41:15;;;;;;;2.15;1.58;;;13.00;1.40;;;14.44;100.00;94856.36;644556;216;42124;-69
2022/08/17 02:43:57;;;;;;;1.37;0.93;;;12.90;1.40;;;14.47;100.00;94848.94;648092;212;31505;-69
2022/08/17 02:46:39;;;;;;;1.42;1.33;;;12.90;1.40;;;14.43;100.00;94841.19;645140;216;32151;-69
2022/08/17 02:49:21;;;;;;;1.60;1.27;;;12.90;1.40;;;14.39;100.00;94834.58;645374;212;32158;-69
2022/08/17 02:52:03;;;;;;;1.70;1.30;;;12.90;1.40;;;14.43;100.00;94829.68;650037;216;32062;-70
2022/08/17 02:54:44;;;;;;;1.90;1.58;;;12.90;1.40;;;14.42;100.00;94828.09;643793;216;31535;-69
2022/08/17 02:57:26;;;;;;;1.35;1.25;;;12.80;1.40;;;14.44;100.00;94826.98;646124;216;31629;-69
2022/08/17 03:00:10;;;;;;;2.42;1.70;;;12.80;1.40;;;14.37;100.00;94829.48;650597;216;31525;-70
2022/08/17 03:02:55;;;;;;;1.70;1.60;;;12.90;1.40;;;14.01;100.00;94832.34;647121;212;31517;-70
2022/08/17 03:05:36;;;;;;;1.48;1.30;;;12.70;1.40;;;13.72;100.00;94843.59;643654;216;31619;-70
2022/08/17 03:08:17;;;;;;;1.33;1.23;;;12.40;1.40;;;13.55;100.00;94844.87;647098;216;31484;-70
2022/08/17 03:10:59;;;;;;;3.53;1.83;;;12.30;1.40;;;13.71;100.00;94843.09;644719;216;31607;-70
2022/08/17 03:13:41;;;;;;;1.40;1.30;;;12.30;1.40;;;13.74;100.00;94842.14;616732;222;32023;-70
2022/08/17 03:16:26;;;;;;;1.20;1.00;;;12.40;1.40;;;13.70;100.00;94836.46;640385;212;31732;-69
2022/08/17 03:19:08;;;;;;;4.93;0.90;;;12.30;1.40;;;13.64;100.00;94834.98;653415;216;42170;-70
2022/08/17 03:21:49;;;;;;;1.70;1.37;;;12.20;1.40;;;13.69;100.00;94835.27;645842;216;31543;-69
2022/08/17 03:24:31;;;;;;;2.12;1.42;;;12.30;1.40;;;13.82;100.00;94833.91;648228;212;32109;-70
2022/08/17 03:27:16;;;;;;;2.10;1.90;;;12.50;1.40;;;13.84;100.00;94833.68;647083;216;31834;-69
2022/08/17 03:29:58;;;;;;;1.30;1.20;;;12.60;1.40;;;13.83;100.00;94840.83;649097;212;31839;-69
2022/08/17 03:32:39;;;;;;;2.00;1.10;;;12.50;1.40;;;13.77;100.00;94833.58;645040;212;31551;-70
2022/08/17 03:35:51;;;;;;;1.98;1.52;;;12.40;1.40;;;13.73;100.00;94842.66;650854;216;32136;-69
2022/08/17 03:38:32;;;;;;;1.12;1.10;;;12.50;1.40;;;13.74;100.00;94848.97;652259;216;42195;-70
2022/08/17 03:41:14;;;;;;;1.05;0.95;;;12.50;1.40;;;13.82;100.00;94842.41;647696;216;42172;-69
2022/08/17 03:43:56;;;;;;;0.60;0.57;;;12.50;1.40;;;13.86;100.00;94847.59;647583;212;42695;-69
2022/08/17 03:57:51;;;;;;;1.55;1.45;;;12.80;1.40;;;14.12;100.00;94855.09;646995;216;31559;-69
2022/08/17 04:00:33;;;;;;;1.62;1.52;;;12.80;1.40;;;13.95;100.00;94858.86;650779;216;31578;-69
2022/08/17 04:03:18;;;;;;;1.50;1.40;;;12.70;1.40;;;13.88;100.00;94860.56;652107;216;42699;-69
2022/08/17 04:06:01;;;;;;;4.97;1.17;;;12.60;1.40;;;13.94;100.00;94853.26;645533;216;31556;-69
2022/08/17 04:08:41;;;;;;;1.95;1.27;;;12.70;1.40;;;14.01;100.00;94858.75;652963;212;31563;-69
2022/08/17 04:11:23;;;;;;;1.58;1.30;;;12.70;1.40;;;14.03;100.00;94856.48;645648;216;42699;-69
2022/08/17 04:14:05;;;;;;;2.17;1.25;;;12.70;1.40;;;14.11;100.00;94853.16;622926;226;32128;-69
2022/08/17 04:16:47;;;;;;;1.55;1.45;;;12.90;1.40;;;14.19;100.00;94854.48;645880;216;34401;-70
2022/08/17 04:19:29;;;;;;;1.50;0.90;;;12.90;1.40;;;14.23;100.00;94848.66;645485;216;31521;-69
2022/08/17 04:22:12;;;;;;;2.00;1.05;;;12.80;1.40;;;14.21;100.00;94843.33;645199;212;31567;-69
2022/08/17 04:24:55;;;;;;;1.67;1.08;;;12.70;1.40;;;14.19;100.00;94838.86;646083;216;31554;-69
2022/08/17 04:27:37;;;;;;;2.28;1.33;;;12.70;1.40;;;14.28;100.00;94843.83;645059;216;31533;-69
2022/08/17 04:30:19;;;;;;;1.35;0.73;;;12.70;1.40;;;14.40;100.00;94840.84;647219;216;31547;-69
2022/08/17 04:35:52;;;;;;;1.60;1.50;;;12.80;1.40;;;14.25;100.00;94833.83;646416;216;31566;-70
2022/08/17 04:38:36;;;;;;;3.00;1.27;;;12.70;1.40;;;14.22;100.00;94832.13;648279;212;31523;-69
2022/08/17 04:43:57;;;;;;;0.93;0.65;;;12.80;1.40;;;14.34;100.00;94829.95;618874;226;32554;-69
2022/08/17 04:46:37;;;;;;;0.85;0.85;;;12.80;1.40;;;14.40;100.00;94830.57;651370;216;31893;-69
2022/08/17 04:49:19;;;;;;;1.40;1.30;;;12.90;1.40;;;14.42;100.00;94830.95;646451;216;31563;-70
2022/08/17 04:52:02;;;;;;;1.45;1.27;;;12.90;1.40;;;14.51;100.00;94831.23;650922;212;31511;-70
2022/08/17 04:57:18;;;;;;;1.42;1.15;;;13.00;1.40;;;14.38;100.00;94844.02;647507;216;31536;-70
2022/08/17 05:00:00;;;;;;;0.65;0.65;;;13.00;1.40;;;14.26;100.00;94849.13;650710;216;31673;-70
2022/08/17 05:02:46;;;;;;;1.95;1.50;;;12.90;1.40;;;14.27;100.00;94853.80;648543;216;31496;-70
2022/08/17 05:06:55;;;;;;;4.68;1.60;;;12.90;1.40;;;14.26;100.00;94859.65;648166;212;31566;-72
2022/08/17 05:09:37;;;;;;;1.27;1.08;;;13.00;1.40;;;14.48;100.00;94855.41;645701;212;32334;-70
2022/08/17 05:14:53;;;;;;;4.78;1.17;;;13.20;1.40;;;14.67;100.00;94864.77;642439;216;31749;-71
2022/08/17 05:17:36;;;;;;;1.23;1.12;;;13.30;1.40;;;14.83;100.00;94870.63;650206;212;31569;-70
2022/08/17 05:20:20;;;;;;;2.00;1.50;;;13.40;1.40;;;14.99;100.00;94868.98;646343;212;31552;-69
2022/08/17 05:23:05;;;;;;;1.67;1.58;;;13.50;1.40;;;15.13;100.00;94868.75;648084;212;32220;-69
2022/08/17 05:25:44;;;;;;;2.95;1.23;;;13.70;1.40;;;15.29;100.00;94868.48;647570;216;31559;-69
2022/08/17 05:28:26;;;;;;;2.20;1.50;;;13.80;1.40;;;15.50;100.00;94867.69;651242;216;31522;-69
2022/08/17 05:31:08;;;;;;;4.30;1.80;;;14.20;1.40;;;15.66;100.00;94865.20;646377;216;31548;-69
2022/08/17 05:35:51;;;;;;;1.85;1.67;;;14.70;1.40;;;16.01;100.00;94861.23;645660;216;31632;-69
2022/08/17 05:38:32;;;;;;;2.15;1.95;;;14.70;1.40;;;16.15;100.00;94855.74;645358;216;31607;-69
2022/08/17 05:41:14;;;;;;;1.67;1.37;;;14.80;1.40;;;16.28;100.00;94857.63;646323;216;31882;-69
2022/08/17 05:43:59;;;;;;;2.12;1.50;;;14.90;1.40;;;16.49;100.00;94858.50;645492;212;31496;-70
2022/08/17 05:46:41;;;;;;;2.08;1.45;;;15.10;1.40;;;16.75;100.00;94865.50;643951;216;31566;-69
2022/08/17 05:49:23;;;;;;;1.62;1.20;;;15.40;1.40;;;16.94;100.00;94861.63;647604;216;32032;-69
2022/08/17 05:52:13;;;;;;;1.50;1.40;;;15.60;1.40;;;17.12;100.00;94866.54;648289;216;31552;-69
2022/08/17 05:55:12;;;;;;;2.25;1.87;;;15.70;1.40;;;17.24;100.00;94866.50;644773;216;32140;-69
2022/08/17 05:58:13;;;;;;;2.40;1.80;;;15.80;1.40;;;17.37;100.00;94864.22;646109;216;31554;-69
2022/08/17 06:00:59;;;;;;;2.45;2.12;;;15.90;1.40;;;17.50;100.00;94859.09;646391;212;31513;-69
2022/08/17 06:06:33;;;;;;;2.30;1.70;;;16.20;1.40;;;17.81;100.00;94876.18;644323;216;31592;-69
2022/08/17 06:17:13;;;;;;;2.40;2.20;;;16.90;1.40;;;18.52;100.00;94876.55;644306;212;42186;-69
2022/08/17 06:19:58;;;;;;;5.53;2.00;;;17.00;1.40;;;18.65;100.00;94872.20;652082;216;31557;-69
2022/08/17 06:25:21;;;;;;;2.57;2.37;;;17.30;1.40;;;18.91;100.00;94875.29;648044;216;31634;-70
2022/08/17 06:28:04;;;;;;;1.73;1.33;;;17.50;1.40;;;19.06;100.00;94877.27;643841;216;31707;-70
2022/08/17 06:30:49;;;;;;;3.28;1.90;;;17.60;1.40;;;19.27;100.00;94881.61;646861;216;31686;-69
2022/08/17 06:35:58;;;;;;;2.55;2.17;;;18.00;1.40;;;19.57;100.00;94886.61;647652;216;31627;-69
2022/08/17 06:38:52;;;;;;;2.80;2.40;;;18.10;1.40;;;19.74;100.00;94892.58;647247;212;42143;-70
2022/08/17 06:41:42;;;;;;;2.40;2.08;;;18.30;1.40;;;19.95;100.00;94897.69;647238;212;31557;-70
2022/08/17 06:44:28;;;;;;;3.35;2.00;;;18.50;1.40;;;20.13;100.00;94900.98;646345;212;31953;-69
2022/08/17 06:47:14;;;;;;;2.40;1.90;;;18.60;1.40;;;20.30;100.00;94900.48;644516;212;33558;-70
2022/08/17 06:49:56;;;;;;;2.80;2.10;;;18.70;1.40;;;20.37;100.00;94904.79;646339;216;42188;-70
2022/08/17 06:52:38;;;;;;;3.28;2.25;;;18.80;1.40;;;20.53;100.00;94907.75;644802;216;42276;-69
2022/08/17 06:55:25;;;;;;;2.58;2.37;;;19.10;1.40;;;20.71;100.00;94908.34;648072;216;32984;-70
2022/08/17 06:58:06;;;;;;;2.03;1.83;;;19.40;1.40;;;20.92;100.00;94913.37;647103;216;31674;-70
2022/08/17 07:00:47;;;;;;;2.97;2.63;;;19.50;1.40;;;21.01;100.00;94922.44;649347;216;31557;-70
2022/08/17 07:03:36;;;;;;;3.25;2.70;;;19.60;1.40;;;21.16;100.00;94927.66;646813;216;31518;-70
2022/08/17 07:06:17;;;;;;;2.80;2.15;;;19.60;1.40;;;21.28;100.00;94920.41;644863;216;31580;-70
2022/08/17 07:09:01;;;;;;;9.50;2.12;;;19.70;1.40;;;21.50;100.00;94924.84;648618;216;31534;-70
2022/08/17 07:11:51;;;;;;;6.78;2.40;;;20.10;1.40;;;21.79;100.00;94934.47;648221;216;31558;-70
2022/08/17 07:14:51;;;;;;;3.25;2.50;;;20.70;1.40;;;22.11;100.00;94938.25;648038;216;31650;-70
2022/08/17 07:17:31;;;;;;;3.00;2.08;;;21.00;1.40;;;22.23;100.00;94939.05;618076;226;32224;-70
2022/08/17 07:20:13;;;;;;;4.93;2.20;;;21.10;1.40;;;22.34;100.00;94933.83;616863;226;32062;-71
2022/08/17 07:25:29;;;;;;;2.20;2.00;;;21.50;1.40;;;22.70;100.00;94945.67;645690;216;31665;-70
2022/08/17 07:30:47;;;;;;;2.62;2.28;;;22.00;1.40;;;22.86;100.00;94952.68;647360;212;31616;-70
2022/08/17 07:35:51;;;;;;;3.10;2.80;;;21.70;1.40;;;22.91;100.00;94954.41;644349;216;32422;-70
2022/08/17 07:38:32;;;;;;;2.85;2.42;;;21.80;1.40;;;23.11;100.00;94959.67;618286;222;31956;-70
2022/08/17 07:41:16;;;;;;;2.92;2.20;;;22.00;1.40;;;23.25;100.00;94955.20;646448;216;31556;-70
2022/08/17 07:43:58;;;;;;;2.50;2.30;;;22.10;1.40;;;23.39;98.45;94949.38;645694;216;31570;-70
2022/08/17 07:51:52;;;;;;;3.60;2.47;;;22.40;1.40;;;23.65;95.74;94944.40;644611;216;31597;-70
2022/08/17 07:54:35;;;;;;;2.25;2.05;;;22.40;1.40;;;23.63;95.63;94951.50;647576;216;31626;-70
2022/08/17 07:57:29;;;;;;;2.80;2.45;;;22.40;1.40;;;23.88;94.18;94953.72;617835;226;31954;-70
2022/08/17 08:00:15;;;;;;;2.42;2.20;;;22.70;1.40;;;24.10;93.59;94951.91;646598;216;31624;-70
2022/08/17 08:02:59;;;;;;;2.60;2.40;;;23.00;1.40;;;24.28;92.62;94950.53;647088;216;32165;-70
2022/08/17 08:05:49;;;;;;;3.37;2.30;;;23.10;1.40;;;24.51;90.96;94944.20;645815;216;42163;-72
2022/08/17 08:08:34;;;;;;;2.47;2.28;;;23.20;1.40;;;24.61;88.81;94934.66;647440;216;42160;-70
2022/08/17 08:11:15;;;;;;;2.95;2.47;;;23.30;1.40;;;24.57;87.98;94936.31;646113;212;42772;-70
2022/08/17 08:13:57;;;;;;;3.20;2.90;;;23.30;1.40;;;24.69;88.90;94940.46;646515;212;31936;-71
2022/08/17 08:16:39;;;;;;;2.33;2.12;;;23.20;1.40;;;24.78;87.23;94947.89;635636;216;31711;-70
2022/08/17 08:19:22;;;;;;;3.05;2.40;;;23.40;1.40;;;25.12;86.90;94947.48;646871;216;42168;-70
2022/08/17 08:22:09;;;;;;;2.35;2.15;;;23.60;1.40;;;25.33;85.86;94943.77;646230;216;32300;-71
2022/08/17 08:25:04;;;;;;;2.45;2.20;;;24.00;1.40;;;25.68;85.21;94936.66;646261;216;32104;-70
2022/08/17 08:27:46;;;;;;;2.53;2.20;;;24.30;1.40;;;25.54;83.31;94946.03;645862;216;31698;-70
2022/08/17 08:30:31;;;;;;;2.95;2.62;;;24.20;1.40;;;25.60;82.57;94936.95;647970;212;31535;-70
2022/08/17 08:36:08;;;;;;;2.30;2.10;;;24.50;1.40;;;26.14;82.52;94927.84;646348;216;31596;-70
2022/08/17 08:39:00;;;;;;;2.58;2.37;;;24.80;1.40;;;26.60;80.55;94920.99;645722;216;31622;-72
2022/08/17 08:42:00;;;;;;;2.42;2.22;;;25.40;1.40;;;26.97;80.71;94922.45;645302;212;31562;-70
2022/08/17 08:44:46;;;;;;;2.50;2.30;;;25.70;1.40;;;26.91;78.52;94925.01;645293;216;31587;-71
2022/08/17 08:47:34;;;;;;;2.50;2.30;;;25.40;1.40;;;27.32;79.28;94921.36;618154;226;32371;-71
2022/08/17 08:50:18;;;;;;;4.10;2.80;;;25.90;1.40;;;27.87;78.08;94917.45;646781;216;31703;-71
2022/08/17 08:53:02;;;;;;;2.65;2.45;;;26.70;1.40;;;28.21;74.98;94911.81;645660;216;31609;-71
2022/08/17 08:55:50;;;;;;;5.18;2.80;;;26.90;1.40;;;28.20;73.57;94913.26;645872;212;31556;-70
2022/08/17 08:58:36;;;;;;;2.75;2.55;;;26.90;1.40;;;28.83;72.81;94914.72;646029;216;31620;-71
2022/08/17 09:01:25;;;;;;;2.92;2.12;;;27.60;1.40;;;29.31;70.94;94910.27;646974;212;32236;-71
2022/08/17 09:07:04;;;;;;;2.90;2.70;;;28.10;1.40;;;30.00;66.29;94919.77;647397;216;31660;-70
2022/08/17 09:10:02;;;;;;;2.58;2.30;;;28.90;1.40;;;30.71;61.33;94925.22;645700;216;31591;-71
2022/08/17 09:15:56;;;;;;;2.75;2.50;;;33.70;1.40;;;33.31;55.91;94922.41;641130;212;32309;-71
2022/08/17 09:18:37;;;;;;;3.03;2.80;;;34.00;1.40;;;33.68;57.02;94911.70;646854;216;31677;-71
2022/08/17 09:21:26;;;;;;;3.55;2.58;;;34.40;1.40;;;35.25;52.65;94898.49;619065;222;31940;-71
2022/08/17 09:24:14;;;;;;;2.70;2.50;;;35.10;1.40;;;34.86;52.56;94897.23;645507;216;31714;-71
2022/08/17 09:27:01;;;;;;;4.12;2.40;;;34.60;1.40;;;36.38;50.46;94901.11;646805;216;42211;-72
2022/08/17 09:29:48;;;;;;;2.65;2.42;;;36.00;1.40;;;38.25;49.42;94899.17;646278;216;32155;-71
2022/08/17 09:32:50;;;;;;;3.60;2.30;;;37.40;1.40;;;37.41;48.08;94909.40;648257;216;31613;-72
2022/08/17 09:35:56;;;;;;;4.57;2.50;;;36.20;1.40;;;38.10;42.99;94905.84;646486;215;31618;-71
2022/08/17 09:38:55;;;;;;;2.90;2.60;;;35.80;1.40;;;37.65;42.29;94901.27;646369;212;32252;-72
2022/08/17 09:41:40;;;;;;;3.95;2.67;;;35.30;1.40;;;39.48;43.03;94903.33;645893;216;31900;-72
2022/08/17 09:44:43;;;;;;;3.60;2.55;;;36.60;1.40;;;39.44;39.74;94900.47;645959;216;31639;-72
2022/08/17 09:50:15;;;;;;;2.60;2.40;;;36.00;1.40;;;39.70;39.84;94901.80;645916;212;31632;-71
2022/08/17 09:52:57;;;;;;;2.70;2.50;;;36.50;1.40;;;36.34;42.24;94910.40;646903;216;31661;-71
2022/08/17 09:55:56;;;;;;;3.20;2.90;;;34.20;1.40;;;37.74;42.08;94902.05;647671;216;31632;-72
2022/08/17 10:04:05;;;;;;;4.50;2.87;;;37.80;1.40;;;40.95;37.57;94895.29;645047;212;32285;-71
2022/08/17 10:09:44;;;;;;;3.20;2.90;;;38.90;1.40;;;42.62;36.40;94896.48;647722;212;31915;-72
2022/08/17 10:18:02;;;;;;;3.40;3.10;;;36.00;1.40;;;41.80;37.82;94909.75;646901;216;31628;-72
2022/08/17 10:26:11;;;;;;;2.60;2.40;;;37.40;1.40;;;42.47;35.00;94904.67;647109;216;31572;-70
2022/08/17 10:26:21;;;;;;;3.00;2.67;;;38.40;1.40;;;39.26;36.25;94906.73;647075;212;32073;-70
2022/08/17 10:29:06;;;;;;;2.80;2.60;;;36.00;1.40;;;38.03;37.13;94911.46;618163;226;31959;-71
2022/08/17 10:31:52;;;;;;;3.20;2.30;;;34.50;1.40;;;37.92;37.73;94905.41;644993;212;31561;-69
2022/08/17 10:35:57;;;;;;;2.90;2.62;;;34.80;1.40;;;40.92;35.40;94902.05;645575;216;31613;-72
2022/08/17 10:41:25;;;;;;;3.70;2.60;;;37.10;1.40;;;41.63;34.11;94908.55;646666;216;31557;-71
2022/08/17 10:44:10;;;;;;;2.83;2.53;;;36.60;1.40;;;41.79;33.50;94914.50;645641;216;31721;-72
2022/08/17 10:47:13;;;;;;;3.57;2.40;;;36.50;1.40;;;39.72;33.78;94910.14;644557;216;31643;-72
2022/08/17 10:49:56;;;;;;;2.30;2.10;;;36.10;1.40;;;40.38;33.58;94900.96;647146;216;31566;-72
2022/08/17 10:52:48;;;;;;;2.95;2.50;;;36.00;1.40;;;40.20;34.01;94898.44;618808;226;32046;-71
2022/08/17 10:55:29;;;;;;;3.13;2.83;;;36.00;1.40;;;41.09;32.94;94897.77;647187;216;31635;-70
2022/08/17 10:58:19;;;;;;;2.23;2.10;;;36.50;1.40;;;40.91;33.54;94901.83;645936;216;31574;-70
2022/08/17 11:00:58;;;;;;;3.10;2.90;;;36.50;1.40;;;40.42;35.12;94906.61;645236;216;31903;-72
2022/08/17 11:03:51;;;;;;;3.30;3.10;;;37.80;1.40;;;41.96;32.08;94907.77;645808;216;31582;-70
2022/08/17 11:06:45;;;;;;;2.78;2.58;;;38.20;1.40;;;41.07;32.70;94916.94;647721;216;31673;-70
2022/08/17 11:09:48;;;;;;;2.40;2.30;;;37.20;1.40;;;41.16;32.01;94915.70;646563;216;31914;-70
2022/08/17 11:12:31;;;;;;;2.80;2.60;;;36.10;1.40;;;38.19;34.97;94917.70;646614;216;31538;-71
2022/08/17 11:15:13;;;;;;;2.80;2.40;;;34.30;1.40;;;38.39;34.89;94910.70;642182;216;31729;-70
2022/08/17 11:18:29;;;;;;;3.10;2.80;;;34.50;1.40;;;36.40;36.83;94922.95;646436;212;31559;-72
2022/08/17 11:21:43;;;;;;;2.93;2.67;;;33.40;1.40;;;38.42;35.31;94905.50;645871;216;31568;-71
2022/08/17 11:24:34;;;;;;;3.13;2.93;;;35.40;1.40;;;37.53;36.54;94909.21;647523;216;31560;-71
2022/08/17 11:27:21;;;;;;;3.00;2.80;;;34.60;1.40;;;40.20;33.93;94901.50;646848;216;31534;-71
2022/08/17 11:30:04;;;;;;;3.13;2.70;;;36.70;1.40;;;41.99;32.05;94899.22;644911;212;31570;-72
2022/08/17 11:32:47;;;;;;;2.93;2.63;;;38.10;1.40;;;42.18;31.46;94898.64;617581;226;32013;-72
2022/08/17 11:35:51;;;;;;;2.70;2.50;;;37.90;1.40;;;40.51;33.37;94896.67;629874;218;31634;-73
2022/08/17 11:38:52;;;;;;;2.60;2.40;;;35.50;1.40;;;39.72;33.73;94897.23;645906;212;31600;-72
2022/08/17 11:41:47;;;;;;;2.17;2.05;;;34.10;1.40;;;37.09;36.17;94905.81;618474;225;31916;-70
2022/08/17 11:53:01;;;;;;;2.50;2.30;;;30.60;1.40;;;34.42;38.60;94933.06;646683;214;31587;-72
2022/08/17 11:58:36;;;;;;;3.20;3.00;;;32.20;1.40;;;33.76;40.33;94926.77;646154;216;31889;-72
2022/08/17 12:01:39;;;;;;;2.28;2.17;;;31.40;1.40;;;35.70;38.38;94919.41;617981;226;31867;-73
2022/08/17 12:07:17;;;;;;;4.07;2.60;;;36.70;1.40;;;39.92;33.84;94912.66;645593;212;31945;-73
2022/08/17 12:09:59;;;;;;;2.67;2.47;;;37.10;1.40;;;41.74;32.16;94916.05;646318;216;31657;-73
2022/08/17 12:12:42;;;;;;;2.25;2.05;;;37.80;1.40;;;42.17;31.62;94911.78;646684;216;31912;-73
2022/08/17 12:15:27;;;;;;;4.07;2.70;;;38.40;1.40;;;43.32;31.91;94909.34;616209;226;33262;-73
2022/08/17 12:18:06;;;;;;;2.70;2.50;;;39.50;1.40;;;44.03;29.23;94904.92;645141;216;31974;-72
2022/08/17 12:20:48;;;;;;;2.40;2.20;;;38.90;1.40;;;43.47;30.13;94904.62;647224;216;31557;-73
2022/08/17 12:23:55;;;;;;;2.60;2.40;;;37.50;1.40;;;42.51;30.17;94906.02;646537;216;31568;-73
2022/08/17 12:26:36;;;;;;;4.87;2.53;;;36.90;1.40;;;41.56;30.47;94906.93;646237;212;31729;-73
2022/08/17 12:29:18;;;;;;;2.40;2.20;;;36.50;1.40;;;41.28;30.78;94900.48;645718;212;32047;-73
2022/08/17 12:32:00;;;;;;;3.50;2.30;;;36.30;1.40;;;39.50;32.40;94898.27;647215;216;31614;-71
2022/08/17 12:36:01;;;;;;;2.90;2.58;;;36.00;1.40;;;41.25;30.63;94895.66;645028;215;31676;-73
2022/08/17 12:38:41;;;;;;;2.50;2.30;;;36.20;1.40;;;40.98;31.48;94885.43;646374;216;31564;-73
2022/08/17 12:41:43;;;;;;;5.17;2.70;;;36.50;1.40;;;42.36;29.60;94875.54;646613;216;31653;-73
2022/08/17 12:44:31;;;;;;;2.20;2.10;;;37.80;1.40;;;42.38;29.52;94869.16;647412;216;31537;-73
2022/08/17 12:47:16;;;;;;;3.27;2.30;;;37.00;1.40;;;42.25;29.10;94881.17;648021;212;31568;-73
2022/08/17 12:49:59;;;;;;;2.93;2.40;;;37.20;1.40;;;43.09;29.88;94871.37;646545;216;31635;-74
2022/08/17 12:52:41;;;;;;;2.23;2.13;;;37.40;1.40;;;42.09;28.89;94878.43;647245;216;31558;-73
2022/08/17 12:55:25;;;;;;;2.43;2.23;;;37.00;1.40;;;42.36;29.41;94867.86;647330;216;31670;-71
2022/08/17 12:58:06;;;;;;;2.50;2.30;;;37.20;1.40;;;41.30;30.06;94867.02;645958;216;32050;-73
2022/08/17 13:00:49;;;;;;;4.20;3.00;;;35.80;1.40;;;43.02;29.30;94864.46;619295;226;32283;-73
2022/08/17 13:03:31;;;;;;;2.60;2.40;;;36.30;1.40;;;42.60;29.21;94877.34;646201;216;32134;-73
2022/08/17 13:06:13;;;;;;;2.50;2.30;;;35.90;1.40;;;42.32;29.37;94872.41;648016;216;32315;-73
2022/08/17 13:08:55;;;;;;;2.40;2.20;;;35.50;1.40;;;40.97;29.72;94879.86;646184;216;31559;-71
2022/08/17 13:11:36;;;;;;;2.70;2.50;;;35.50;1.40;;;38.84;32.05;94885.06;646171;216;31560;-71
2022/08/17 13:14:18;;;;;;;2.70;2.50;;;34.60;1.40;;;38.83;31.92;94880.02;645835;216;32111;-73
2022/08/17 13:17:04;;;;;;;2.45;2.25;;;34.70;1.40;;;40.28;31.33;94869.37;646630;212;31909;-73
2022/08/17 13:19:47;;;;;;;2.70;2.50;;;36.50;1.40;;;42.32;29.46;94867.06;644711;216;31720;-73
2022/08/17 13:25:07;;;;;;;2.30;2.20;;;36.70;1.40;;;41.91;29.40;94869.45;645938;216;31635;-73